Time;durP1;ratioP1;P1;durP2;ratioP2;P2;SDS_P1;SDS_P2;PMS_P1;PMS_P2;Temp;Humidity;BMP_temperature;BMP_pressure;BME280_temperature;BME280_humidity;BME280_pressure;Samples;Min_cycle;Max_cycle;Signal;HPM_P1;HPM_P2
2022/08/20 00:01:16;;;;;;;9.23;6.00;;;19.30;1.00;;;;;;5033572;28;20479;-78
2022/08/20 00:03:46;;;;;;;15.80;6.70;;;19.20;1.00;;;;;;5024344;28;20394;-78
2022/08/20 00:06:28;;;;;;;24.43;7.17;;;19.20;1.00;;;;;;5024938;28;20457;-78
2022/08/20 00:08:53;;;;;;;8.43;6.70;;;19.20;1.00;;;;;;5027048;28;20504;-72
2022/08/20 00:11:23;;;;;;;17.33;6.60;;;19.20;1.00;;;;;;5032900;28;20561;-72
2022/08/20 00:13:54;;;;;;;9.93;6.83;;;19.20;1.00;;;;;;5019251;28;20200;-72
2022/08/20 00:16:24;;;;;;;9.07;6.40;;;19.10;1.00;;;;;;5020169;28;20470;-72
2022/08/20 00:18:50;;;;;;;8.73;6.70;;;19.10;1.00;;;;;;5029749;28;20425;-72
2022/08/20 00:21:18;;;;;;;8.93;5.97;;;19.10;1.00;;;;;;5028256;28;20441;-72
2022/08/20 00:23:48;;;;;;;9.23;6.10;;;19.10;1.00;;;;;;5032817;28;20401;-78
2022/08/20 00:26:17;;;;;;;12.33;6.30;;;19.10;1.00;;;;;;5033196;28;20408;-78
2022/08/20 00:28:53;;;;;;;12.17;6.97;;;19.20;1.00;;;;;;5030842;28;20938;-78
2022/08/20 00:31:23;;;;;;;9.40;5.80;;;19.10;1.00;;;;;;5013657;28;20803;-78
2022/08/20 00:34:15;;;;;;;11.43;7.40;;;19.10;1.00;;;;;;5030587;28;20413;-78
2022/08/20 00:36:52;;;;;;;15.67;6.43;;;19.20;1.00;;;;;;5031340;28;20513;-78
2022/08/20 00:39:28;;;;;;;8.13;5.73;;;19.30;1.00;;;;;;5032768;28;20991;-78
2022/08/20 00:41:58;;;;;;;15.83;6.10;;;19.30;1.00;;;;;;5016728;28;20439;-78
2022/08/20 00:45:15;;;;;;;8.20;6.30;;;19.40;1.00;;;;;;5019489;28;20479;-78
2022/08/20 00:48:10;;;;;;;6.63;5.40;;;19.50;1.00;;;;;;5024350;28;20427;-78
2022/08/20 00:50:56;;;;;;;16.57;5.47;;;19.50;1.00;;;;;;5025293;28;20442;-78
2022/08/20 00:53:25;;;;;;;6.50;5.10;;;19.60;1.00;;;;;;5014197;28;20381;-78
2022/08/20 00:55:59;;;;;;;8.10;5.30;;;19.60;1.00;;;;;;5022038;28;20416;-78
2022/08/20 00:58:27;;;;;;;8.30;5.83;;;19.60;1.00;;;;;;5023604;28;20421;-78
2022/08/20 01:01:21;;;;;;;15.87;6.27;;;19.60;1.00;;;;;;5020241;28;20443;-78
2022/08/20 01:03:58;;;;;;;9.33;5.70;;;19.60;1.00;;;;;;5013638;28;20386;-78
2022/08/20 01:06:34;;;;;;;10.37;5.60;;;19.60;1.00;;;;;;5018505;28;20434;-79
2022/08/20 01:09:10;;;;;;;9.50;5.70;;;19.70;1.00;;;;;;5034137;28;20908;-78
2022/08/20 01:11:46;;;;;;;8.53;6.27;;;19.80;1.00;;;;;;5032398;28;20427;-78
2022/08/20 01:17:16;;;;;;;6.90;5.70;;;19.80;1.00;;;;;;5035689;28;20917;-78
2022/08/20 01:20:09;;;;;;;9.27;5.50;;;19.80;1.00;;;;;;5016034;28;20914;-78
2022/08/20 01:23:29;;;;;;;6.10;5.23;;;19.90;1.00;;;;;;5033940;28;20472;-78
2022/08/20 01:26:02;;;;;;;8.40;5.93;;;19.90;1.00;;;;;;5017589;28;20494;-72
2022/08/20 01:28:55;;;;;;;8.30;5.33;;;20.00;1.00;;;;;;5018622;28;20550;-72
2022/08/20 01:31:24;;;;;;;10.23;5.50;;;20.00;1.00;;;;;;5024147;28;20426;-73
2022/08/20 01:33:53;;;;;;;9.73;5.90;;;20.10;1.00;;;;;;5015582;28;20431;-72
2022/08/20 01:36:29;;;;;;;10.57;7.07;;;20.10;1.00;;;;;;5024960;28;20422;-72
2022/08/20 01:39:18;;;;;;;8.30;5.80;;;20.20;1.00;;;;;;5016323;28;20437;-78
2022/08/20 01:42:16;;;;;;;12.00;5.20;;;20.20;1.00;;;;;;5013472;28;20433;-78
2022/08/20 01:44:43;;;;;;;6.90;5.17;;;20.20;1.00;;;;;;5007438;28;20420;-78
2022/08/20 01:47:34;;;;;;;7.17;5.13;;;20.20;1.00;;;;;;5019257;28;20553;-78
2022/08/20 01:50:19;;;;;;;13.13;5.50;;;20.20;1.00;;;;;;5030794;28;20426;-78
2022/08/20 01:53:36;;;;;;;7.33;4.90;;;20.20;1.00;;;;;;5020718;28;20429;-78
2022/08/20 01:56:06;;;;;;;8.23;5.77;;;20.20;1.00;;;;;;4968449;28;20437;-73
2022/08/20 01:58:34;;;;;;;6.20;5.03;;;20.10;1.00;;;;;;4973413;28;20906;-72
2022/08/20 02:01:04;;;;;;;9.20;5.70;;;20.10;1.00;;;;;;4988853;28;20399;-73
2022/08/20 02:03:30;;;;;;;9.03;5.63;;;20.10;1.00;;;;;;4981698;28;20963;-72
2022/08/20 02:05:59;;;;;;;6.40;5.00;;;20.10;1.00;;;;;;4980393;28;20418;-72
2022/08/20 02:08:26;;;;;;;6.70;5.30;;;20.10;1.00;;;;;;4983077;28;20285;-72
2022/08/20 02:10:58;;;;;;;17.00;5.70;;;20.00;1.00;;;;;;4992613;28;20425;-78
2022/08/20 02:13:23;;;;;;;9.30;5.27;;;20.00;1.00;;;;;;4928272;28;1121716;-78
2022/08/20 02:15:58;;;;;;;6.13;5.20;;;20.00;1.00;;;;;;4981435;28;20213;-78
2022/08/20 02:18:28;;;;;;;6.17;5.00;;;20.00;1.00;;;;;;4994666;28;20223;-78
2022/08/20 02:20:53;;;;;;;15.70;5.80;;;20.00;1.00;;;;;;4980182;28;20432;-78
2022/08/20 02:23:22;;;;;;;6.33;5.27;;;20.00;1.00;;;;;;4994151;28;20982;-78
2022/08/20 02:25:52;;;;;;;7.37;4.90;;;19.90;1.00;;;;;;4994158;28;20299;-78
2022/08/20 02:28:22;;;;;;;7.13;5.00;;;19.90;1.00;;;;;;4986248;28;20467;-78
2022/08/20 02:31:07;;;;;;;5.37;4.83;;;19.90;1.00;;;;;;4972657;28;20950;-78
2022/08/20 02:33:40;;;;;;;9.20;5.80;;;19.90;1.00;;;;;;5017306;28;20400;-78
2022/08/20 02:36:18;;;;;;;9.50;5.50;;;19.90;1.00;;;;;;5027152;28;20519;-79
2022/08/20 02:38:46;;;;;;;8.33;5.40;;;19.90;1.00;;;;;;5031016;28;20424;-78
2022/08/20 02:41:14;;;;;;;6.50;5.00;;;19.90;1.00;;;;;;5016482;28;20965;-73
2022/08/20 02:43:39;;;;;;;11.33;5.40;;;19.90;1.00;;;;;;5019691;28;20511;-73
2022/08/20 02:46:06;;;;;;;8.70;5.67;;;19.90;1.00;;;;;;5034227;28;20978;-72
2022/08/20 02:48:33;;;;;;;6.70;5.23;;;19.90;1.00;;;;;;5018641;28;20216;-73
2022/08/20 02:51:02;;;;;;;6.00;5.40;;;19.90;1.00;;;;;;5020812;28;20899;-73
2022/08/20 02:53:32;;;;;;;7.23;5.20;;;20.00;1.00;;;;;;5033439;28;20422;-72
2022/08/20 02:55:59;;;;;;;5.97;4.50;;;20.00;1.00;;;;;;5025032;28;20423;-73
2022/08/20 02:58:26;;;;;;;9.27;5.30;;;20.10;1.00;;;;;;5021687;28;20454;-73
2022/08/20 03:00:52;;;;;;;7.20;5.10;;;20.10;1.00;;;;;;5031397;28;20438;-73
2022/08/20 03:03:21;;;;;;;5.30;4.67;;;20.10;1.00;;;;;;5034495;28;20414;-72
2022/08/20 03:05:55;;;;;;;6.77;4.80;;;20.20;1.00;;;;;;5015584;28;20506;-73
2022/08/20 03:08:22;;;;;;;6.33;5.27;;;20.30;1.00;;;;;;5046133;28;20470;-73
2022/08/20 03:10:52;;;;;;;8.73;5.23;;;20.30;1.00;;;;;;5020428;28;20451;-79
2022/08/20 03:13:19;;;;;;;7.53;5.17;;;20.30;1.00;;;;;;5025751;28;20442;-78
2022/08/20 03:16:03;;;;;;;5.63;4.83;;;20.40;1.00;;;;;;5017379;28;20403;-78
2022/08/20 03:18:47;;;;;;;5.77;4.70;;;20.40;1.00;;;;;;5034974;28;20390;-78
2022/08/20 03:21:16;;;;;;;7.53;5.10;;;20.40;1.00;;;;;;5021693;28;20435;-79
2022/08/20 03:23:52;;;;;;;10.50;4.80;;;20.50;1.00;;;;;;5033900;28;20388;-78
2022/08/20 03:26:45;;;;;;;7.10;5.10;;;20.50;1.00;;;;;;5019652;28;20422;-78
2022/08/20 03:29:16;;;;;;;6.23;4.97;;;20.60;1.00;;;;;;5015194;28;20397;-78
2022/08/20 03:31:46;;;;;;;6.73;5.10;;;20.60;1.00;;;;;;5032981;28;20825;-78
2022/08/20 03:34:39;;;;;;;8.13;5.37;;;20.60;1.00;;;;;;5019285;28;20776;-79
2022/08/20 03:37:28;;;;;;;7.20;4.90;;;20.70;1.00;;;;;;5014911;28;20428;-78
2022/08/20 03:39:54;;;;;;;6.87;5.17;;;20.70;1.00;;;;;;5022574;28;20443;-73
2022/08/20 03:42:28;;;;;;;6.53;4.97;;;20.70;1.00;;;;;;5027939;28;20427;-73
2022/08/20 03:44:53;;;;;;;9.50;5.73;;;20.70;1.00;;;;;;5022173;28;20201;-73
2022/08/20 03:47:20;;;;;;;5.63;4.60;;;20.70;1.00;;;;;;5027127;28;20507;-73
2022/08/20 03:49:45;;;;;;;6.00;4.67;;;20.70;1.00;;;;;;5029477;28;20185;-73
2022/08/20 03:52:12;;;;;;;5.87;4.80;;;20.70;1.00;;;;;;5031211;28;20616;-73
2022/08/20 03:54:37;;;;;;;8.33;5.40;;;20.80;1.00;;;;;;5017179;28;20186;-73
2022/08/20 03:57:05;;;;;;;5.37;4.70;;;20.80;1.00;;;;;;5032404;28;20969;-73
2022/08/20 03:59:31;;;;;;;5.07;4.67;;;20.80;1.00;;;;;;5032956;28;20268;-73
2022/08/20 04:01:58;;;;;;;6.00;5.13;;;20.80;1.00;;;;;;5028799;28;20444;-73
2022/08/20 04:04:25;;;;;;;5.00;4.50;;;20.80;1.00;;;;;;5024476;28;20421;-73
2022/08/20 04:06:51;;;;;;;5.47;4.80;;;20.80;1.00;;;;;;5029155;28;20520;-73
2022/08/20 04:09:17;;;;;;;5.03;4.33;;;20.70;1.00;;;;;;5022446;28;20821;-73
2022/08/20 04:11:43;;;;;;;5.53;4.70;;;20.70;1.00;;;;;;5015764;28;20183;-73
2022/08/20 04:14:10;;;;;;;7.60;4.90;;;20.80;1.00;;;;;;5014042;28;20317;-73
2022/08/20 04:16:36;;;;;;;6.70;4.83;;;20.80;1.00;;;;;;5023859;28;20323;-73
2022/08/20 04:19:05;;;;;;;4.60;4.20;;;20.80;1.00;;;;;;5014952;28;20424;-73
2022/08/20 04:21:47;;;;;;;7.27;5.17;;;20.80;1.00;;;;;;5031052;28;20434;-83
2022/08/20 04:24:16;;;;;;;9.00;5.40;;;20.80;1.00;;;;;;5019763;28;20432;-82
2022/08/20 04:26:46;;;;;;;7.80;5.20;;;20.80;1.00;;;;;;5026800;28;20457;-82
2022/08/20 04:29:35;;;;;;;5.70;5.17;;;20.80;1.00;;;;;;5027072;28;20826;-82
2022/08/20 04:32:05;;;;;;;7.40;5.23;;;20.80;1.00;;;;;;5053423;28;20433;-83
2022/08/20 04:34:46;;;;;;;7.73;5.17;;;20.80;1.00;;;;;;5050234;28;20396;-82
2022/08/20 04:37:20;;;;;;;6.47;4.80;;;20.70;1.00;;;;;;5026161;28;20482;-82
2022/08/20 04:40:52;;;;;;;9.27;5.00;;;20.70;1.00;;;;;;5020135;28;20507;-82
2022/08/20 04:42:40;;;;;;;7.07;5.07;;;20.60;1.00;;;;;;5033699;28;20450;-79
2022/08/20 04:45:17;;;;;;;6.10;5.20;;;20.50;1.00;;;;;;5032557;28;20416;-78
2022/08/20 04:48:06;;;;;;;6.20;5.30;;;20.50;1.00;;;;;;5013306;28;21052;-78
2022/08/20 04:50:42;;;;;;;5.73;4.80;;;20.50;1.00;;;;;;5013878;28;20411;-79
2022/08/20 04:53:18;;;;;;;5.30;4.80;;;20.50;1.00;;;;;;5023531;28;20424;-78
2022/08/20 04:55:47;;;;;;;10.13;5.93;;;20.40;1.00;;;;;;5029235;28;20419;-82
2022/08/20 04:58:20;;;;;;;6.20;5.60;;;20.40;1.00;;;;;;5024947;28;20926;-82
2022/08/20 05:00:48;;;;;;;6.03;5.23;;;20.50;1.00;;;;;;5017939;28;20527;-82
2022/08/20 05:03:17;;;;;;;9.53;4.93;;;20.50;1.00;;;;;;5026213;28;20925;-82
2022/08/20 05:05:46;;;;;;;6.07;5.30;;;20.50;1.00;;;;;;5019736;28;20429;-82
2022/08/20 05:08:17;;;;;;;6.87;5.40;;;20.50;1.00;;;;;;5033010;28;20459;-82
2022/08/20 05:10:46;;;;;;;5.40;4.90;;;20.50;1.00;;;;;;5016142;28;20893;-78
2022/08/20 05:13:16;;;;;;;7.20;5.10;;;20.50;1.00;;;;;;5020096;28;20413;-79
2022/08/20 05:15:47;;;;;;;9.90;5.83;;;20.60;1.00;;;;;;5031595;28;20424;-79
2022/08/20 05:18:45;;;;;;;6.77;4.93;;;20.60;1.00;;;;;;5029075;28;20462;-79
2022/08/20 05:21:28;;;;;;;6.30;4.87;;;20.70;1.00;;;;;;5019419;28;20924;-78
2022/08/20 05:23:58;;;;;;;9.10;5.00;;;20.80;1.00;;;;;;5033110;28;20797;-78
2022/08/20 05:27:03;;;;;;;7.73;5.73;;;20.90;1.00;;;;;;5032703;28;20455;-82
2022/08/20 05:29:47;;;;;;;6.43;5.10;;;21.00;1.00;;;;;;5020322;28;20480;-82
2022/08/20 05:32:47;;;;;;;9.67;5.50;;;21.10;1.00;;;;;;5022668;28;20431;-83
2022/08/20 05:35:13;;;;;;;9.10;5.40;;;21.20;1.00;;;;;;5031069;28;20409;-82
2022/08/20 05:37:46;;;;;;;7.30;5.30;;;21.30;1.00;;;;;;5024490;28;20433;-82
2022/08/20 05:40:16;;;;;;;8.27;6.23;;;21.50;1.00;;;;;;5031407;28;20701;-81
2022/08/20 05:42:42;;;;;;;6.90;4.63;;;21.70;1.00;;;;;;5021933;28;20452;-79
2022/08/20 05:45:08;;;;;;;7.70;5.50;;;21.80;1.00;;;;;;5029292;28;20935;-74
2022/08/20 05:47:39;;;;;;;6.60;5.60;;;22.00;1.00;;;;;;5022123;28;20479;-85
2022/08/20 05:50:57;;;;;;;11.23;7.60;;;22.20;1.00;;;;;;5014260;28;20853;-83
2022/08/20 05:53:34;;;;;;;7.67;6.90;;;22.50;1.00;;;;;;5026052;28;20442;-82
2022/08/20 05:56:02;;;;;;;15.40;8.87;;;22.70;1.00;;;;;;5027051;28;20881;-73
2022/08/20 05:58:31;;;;;;;8.87;8.00;;;22.90;1.00;;;;;;5029989;28;20432;-73
2022/08/20 06:00:57;;;;;;;13.63;7.50;;;23.00;1.00;;;;;;5034215;28;20435;-73
2022/08/20 06:06:08;;;;;;;13.73;8.37;;;23.30;1.00;;;;;;5034344;28;20434;-73
2022/08/20 06:08:35;;;;;;;13.83;9.30;;;23.40;1.00;;;;;;5030127;28;20493;-73
2022/08/20 06:11:00;;;;;;;9.80;8.80;;;23.40;1.00;;;;;;5028011;28;20439;-73
2022/08/20 06:13:27;;;;;;;9.20;8.30;;;23.50;1.00;;;;;;5022290;28;20431;-73
2022/08/20 06:15:54;;;;;;;12.30;9.30;;;23.50;1.00;;;;;;5024020;28;20272;-73
2022/08/20 06:18:20;;;;;;;10.07;8.60;;;23.60;1.00;;;;;;5025232;28;20423;-73
2022/08/20 06:20:46;;;;;;;13.40;9.00;;;23.70;1.00;;;;;;5034408;28;20493;-73
2022/08/20 06:23:12;;;;;;;9.40;8.20;;;23.70;1.00;;;;;;5030686;28;20475;-73
2022/08/20 06:25:39;;;;;;;9.30;8.40;;;23.80;1.00;;;;;;5026483;28;20214;-73
2022/08/20 06:28:05;;;;;;;9.03;7.73;;;23.90;1.00;;;;;;5026160;28;20826;-73
2022/08/20 06:30:31;;;;;;;10.73;7.90;;;23.90;1.00;;;;;;5030759;28;20435;-73
2022/08/20 06:32:57;;;;;;;8.90;8.00;;;23.90;1.00;;;;;;5033399;28;20424;-73
2022/08/20 06:35:28;;;;;;;9.20;8.10;;;23.80;1.00;;;;;;5025194;28;20491;-73
2022/08/20 06:37:56;;;;;;;13.53;8.57;;;23.70;1.00;;;;;;5033163;28;20495;-73
2022/08/20 06:40:25;;;;;;;8.87;7.83;;;23.70;1.00;;;;;;5025208;28;20445;-73
2022/08/20 06:42:52;;;;;;;8.87;8.07;;;23.70;1.00;;;;;;5022175;28;20493;-82
2022/08/20 06:45:34;;;;;;;8.93;8.10;;;23.60;1.00;;;;;;5033105;28;20452;-82
2022/08/20 06:48:28;;;;;;;7.37;6.67;;;23.60;1.00;;;;;;5028816;28;20972;-82
2022/08/20 06:51:05;;;;;;;8.97;7.70;;;23.50;1.00;;;;;;5018611;28;20433;-82
2022/08/20 06:54:04;;;;;;;8.20;7.40;;;23.50;1.00;;;;;;5024441;28;20438;-82
2022/08/20 06:56:46;;;;;;;8.83;7.90;;;23.50;1.00;;;;;;5026171;28;20489;-82
2022/08/20 06:59:11;;;;;;;8.00;7.20;;;23.50;1.00;;;;;;5020981;28;20437;-73
2022/08/20 07:01:37;;;;;;;9.83;7.07;;;23.60;1.00;;;;;;5031404;28;20459;-73
2022/08/20 07:04:04;;;;;;;12.73;7.30;;;23.60;1.00;;;;;;5025424;28;20174;-72
2022/08/20 07:06:30;;;;;;;8.40;7.60;;;23.70;1.00;;;;;;5027330;28;20647;-73
2022/08/20 07:08:56;;;;;;;7.67;6.97;;;23.70;1.00;;;;;;5024935;28;20416;-73
2022/08/20 07:11:22;;;;;;;9.03;7.40;;;23.60;1.00;;;;;;5021892;28;20191;-72
2022/08/20 07:13:48;;;;;;;7.93;7.03;;;23.60;1.00;;;;;;5028689;28;20198;-73
2022/08/20 07:16:15;;;;;;;7.00;6.30;;;23.60;1.00;;;;;;5024997;28;20421;-73
2022/08/20 07:18:41;;;;;;;7.40;6.70;;;23.70;1.00;;;;;;5022152;28;20207;-73
2022/08/20 07:21:07;;;;;;;7.70;6.30;;;23.70;1.00;;;;;;5015566;28;20483;-73
2022/08/20 07:23:35;;;;;;;9.13;6.17;;;23.60;1.00;;;;;;5028718;28;20528;-73
2022/08/20 07:26:06;;;;;;;6.60;5.93;;;23.60;1.00;;;;;;5014230;28;20417;-73
2022/08/20 07:28:36;;;;;;;11.00;6.43;;;23.60;1.00;;;;;;5021560;28;20563;-73
2022/08/20 07:33:47;;;;;;;7.33;6.63;;;23.60;1.00;;;;;;5019556;28;20515;-73
2022/08/20 07:36:13;;;;;;;7.57;6.77;;;23.70;1.00;;;;;;5029631;28;20421;-73
2022/08/20 07:38:39;;;;;;;6.80;6.10;;;23.70;1.00;;;;;;5019941;28;20456;-73
2022/08/20 07:41:12;;;;;;;7.47;6.77;;;23.80;1.00;;;;;;5024351;28;20446;-73
2022/08/20 07:43:38;;;;;;;6.80;6.20;;;23.70;1.00;;;;;;5022001;28;20189;-82
2022/08/20 07:46:17;;;;;;;7.37;5.93;;;23.60;1.00;;;;;;5020869;28;20905;-83
2022/08/20 07:48:45;;;;;;;8.10;6.60;;;23.40;1.00;;;;;;5030901;28;20836;-82
2022/08/20 07:51:57;;;;;;;6.70;6.10;;;23.40;1.00;;;;;;5032293;28;20423;-82
2022/08/20 07:54:28;;;;;;;7.80;6.90;;;23.30;1.00;;;;;;5031802;28;20466;-82
2022/08/20 07:57:17;;;;;;;10.37;6.37;;;23.20;1.00;;;;;;5031587;28;20419;-81
2022/08/20 08:00:11;;;;;;;7.70;6.97;;;23.20;1.00;;;;;;5018119;28;20428;-83
2022/08/20 08:03:16;;;;;;;8.20;7.30;;;23.10;1.00;;;;;;5014711;28;20891;-84
2022/08/20 08:05:49;;;;;;;8.07;7.10;;;23.10;1.00;;;;;;5031726;28;20407;-82
2022/08/20 08:11:48;;;;;;;8.70;7.30;;;23.40;1.00;;;;;;5019999;28;20426;-76
2022/08/20 08:14:18;;;;;;;8.30;7.50;;;23.60;1.00;;;;;;5017057;28;20543;-69
2022/08/20 08:16:44;;;;;;;8.17;7.37;;;23.90;1.00;;;;;;5023609;28;20427;-68
2022/08/20 08:19:13;;;;;;;8.40;6.53;;;24.10;1.00;;;;;;5018484;28;20541;-68
2022/08/20 08:21:40;;;;;;;7.30;6.60;;;24.40;1.00;;;;;;5020476;28;22125;-69
2022/08/20 08:24:06;;;;;;;6.60;6.00;;;24.60;1.00;;;;;;5018510;28;20860;-70
2022/08/20 08:26:31;;;;;;;6.10;5.60;;;24.80;1.00;;;;;;5030906;28;20436;-68
2022/08/20 08:28:57;;;;;;;7.07;6.37;;;25.10;1.00;;;;;;5018883;28;20773;-68
2022/08/20 08:31:24;;;;;;;6.17;5.60;;;25.20;1.00;;;;;;5017376;28;20216;-69
2022/08/20 08:34:16;;;;;;;6.50;5.87;;;25.30;1.00;;;;;;5030375;28;20184;-79
2022/08/20 08:36:46;;;;;;;8.43;5.70;;;25.60;1.00;;;;;;5015230;28;20515;-80
2022/08/20 08:39:16;;;;;;;6.10;5.50;;;26.00;1.00;;;;;;5023192;28;20897;-81
2022/08/20 08:42:15;;;;;;;7.00;5.30;;;26.20;1.00;;;;;;5030527;28;20424;-81
2022/08/20 08:44:46;;;;;;;7.33;5.70;;;26.30;1.00;;;;;;5013977;28;20432;-77
2022/08/20 08:47:20;;;;;;;5.70;5.20;;;26.30;1.00;;;;;;5013547;28;20462;-77
2022/08/20 08:49:52;;;;;;;6.20;5.60;;;26.60;1.00;;;;;;5020821;28;20440;-79
2022/08/20 08:52:30;;;;;;;6.00;5.40;;;26.90;1.00;;;;;;5014668;28;20431;-73
2022/08/20 08:55:00;;;;;;;7.17;5.60;;;27.10;1.00;;;;;;5021937;28;20437;-74
2022/08/20 08:57:26;;;;;;;8.47;5.10;;;27.30;1.00;;;;;;5015881;28;20433;-74
2022/08/20 09:00:01;;;;;;;10.70;5.27;;;27.70;1.00;;;;;;5026913;28;20500;-81
2022/08/20 09:03:03;;;;;;;5.47;4.90;;;27.70;1.00;;;;;;5020380;28;20189;-77
2022/08/20 09:05:37;;;;;;;6.30;4.83;;;27.50;1.00;;;;;;5016493;28;20901;-77
2022/08/20 09:08:05;;;;;;;6.30;4.57;;;27.30;1.00;;;;;;5015782;28;20464;-77
2022/08/20 09:10:41;;;;;;;5.73;4.80;;;26.90;1.00;;;;;;5028675;28;20440;-77
2022/08/20 09:13:07;;;;;;;3.80;3.50;;;26.80;1.00;;;;;;5029663;28;20425;-78
2022/08/20 09:15:40;;;;;;;4.10;3.80;;;26.70;1.00;;;;;;5026915;28;20489;-78
2022/08/20 09:18:10;;;;;;;12.90;3.70;;;26.50;1.00;;;;;;5019693;28;20435;-78
2022/08/20 09:20:40;;;;;;;3.53;3.23;;;26.50;1.00;;;;;;5026119;28;20469;-79
2022/08/20 09:23:16;;;;;;;4.43;2.80;;;26.70;1.00;;;;;;5019372;28;20926;-79
2022/08/20 09:25:46;;;;;;;2.50;2.40;;;26.90;1.00;;;;;;5027039;28;20424;-79
2022/08/20 09:28:16;;;;;;;3.10;2.63;;;26.80;1.00;;;;;;5025674;28;20470;-78
2022/08/20 09:30:46;;;;;;;2.57;2.37;;;26.50;1.00;;;;;;5019679;28;20909;-77
2022/08/20 09:33:16;;;;;;;3.87;2.00;;;26.30;1.00;;;;;;5027092;28;20529;-77
2022/08/20 09:35:46;;;;;;;1.90;1.80;;;26.20;1.00;;;;;;5022965;28;20566;-78
2022/08/20 09:38:16;;;;;;;2.60;1.83;;;26.10;1.00;;;;;;5019780;28;20952;-77
2022/08/20 09:40:46;;;;;;;2.10;2.00;;;25.80;1.00;;;;;;5031694;28;20420;-78
2022/08/20 09:43:16;;;;;;;1.80;1.70;;;25.80;1.00;;;;;;5017892;28;20425;-77
2022/08/20 09:45:46;;;;;;;1.57;1.43;;;25.50;1.00;;;;;;5016012;28;20797;-78
2022/08/20 09:48:11;;;;;;;1.60;1.50;;;25.40;1.00;;;;;;5018564;28;20980;-77
2022/08/20 09:50:48;;;;;;;1.80;1.70;;;25.40;1.00;;;;;;5026398;28;20525;-77
2022/08/20 09:53:14;;;;;;;1.70;1.60;;;25.30;1.00;;;;;;5033112;28;20649;-77
2022/08/20 09:55:51;;;;;;;4.33;1.67;;;25.30;1.00;;;;;;5032905;28;20479;-81
2022/08/20 09:58:55;;;;;;;3.53;1.50;;;25.40;1.00;;;;;;5034562;28;20442;-77
2022/08/20 10:01:22;;;;;;;3.27;1.83;;;25.80;1.00;;;;;;5038063;28;20950;-82
2022/08/20 10:04:04;;;;;;;2.93;1.20;;;26.00;1.00;;;;;;5052292;28;20436;-82
2022/08/20 10:09:51;;;;;;;7.70;1.93;;;26.40;1.00;;;;;;5048868;28;20514;-80
2022/08/20 10:12:34;;;;;;;1.77;1.30;;;26.60;1.00;;;;;;5048050;28;20426;-81
2022/08/20 10:15:16;;;;;;;1.33;1.23;;;26.50;1.00;;;;;;5053065;28;20209;-81
2022/08/20 10:17:42;;;;;;;1.53;1.30;;;26.50;1.00;;;;;;5050247;28;20539;-77
2022/08/20 10:20:12;;;;;;;1.30;1.30;;;26.60;1.00;;;;;;5052447;28;20433;-76
2022/08/20 10:25:59;;;;;;;1.40;1.30;;;27.30;1.00;;;;;;5046339;28;20504;-76
2022/08/20 10:28:35;;;;;;;1.63;1.33;;;27.60;1.00;;;;;;5047094;28;20974;-76
2022/08/20 10:31:03;;;;;;;1.10;1.10;;;27.80;1.00;;;;;;5051714;28;20191;-76
2022/08/20 10:33:41;;;;;;;1.50;1.40;;;27.80;1.00;;;;;;5022092;28;20446;-76
2022/08/20 10:36:08;;;;;;;1.33;1.00;;;27.80;1.00;;;;;;5020487;28;20428;-76
2022/08/20 10:38:34;;;;;;;1.23;1.10;;;27.90;1.00;;;;;;5029181;28;20431;-77
2022/08/20 10:41:04;;;;;;;1.30;1.20;;;27.90;1.00;;;;;;5027932;28;20422;-76
2022/08/20 10:43:30;;;;;;;6.03;1.27;;;28.00;1.00;;;;;;5019986;28;20250;-77
2022/08/20 10:46:04;;;;;;;1.37;1.27;;;27.90;1.00;;;;;;5025414;28;20513;-81
2022/08/20 10:48:30;;;;;;;1.40;1.40;;;27.80;1.00;;;;;;5020472;28;20198;-82
2022/08/20 10:50:58;;;;;;;1.20;1.20;;;27.80;1.00;;;;;;5024624;28;20520;-80
2022/08/20 10:53:51;;;;;;;2.17;1.27;;;27.80;1.00;;;;;;5015598;28;20930;-80
2022/08/20 10:56:17;;;;;;;1.27;1.17;;;27.70;1.00;;;;;;5027775;28;20432;-80
2022/08/20 10:59:21;;;;;;;1.33;1.27;;;28.00;1.00;;;;;;5018393;28;20416;-82
2022/08/20 11:01:47;;;;;;;1.20;1.10;;;28.20;1.00;;;;;;5029784;28;20170;-74
2022/08/20 11:04:13;;;;;;;2.90;1.50;;;28.30;1.00;;;;;;5019275;28;20461;-74
2022/08/20 11:06:39;;;;;;;1.63;1.23;;;28.60;1.00;;;;;;5032084;28;20307;-74
2022/08/20 11:09:04;;;;;;;1.40;1.20;;;28.60;1.00;;;;;;5023360;28;20187;-74
2022/08/20 11:11:30;;;;;;;1.93;1.10;;;29.00;1.00;;;;;;5034750;28;20183;-74
2022/08/20 11:13:58;;;;;;;1.40;1.30;;;28.90;1.00;;;;;;5041722;28;20175;-77
2022/08/20 11:16:24;;;;;;;3.47;1.10;;;28.90;1.00;;;;;;5028253;28;20237;-76
2022/08/20 11:18:58;;;;;;;1.00;1.00;;;28.90;1.00;;;;;;5025000;28;20802;-75
2022/08/20 11:21:24;;;;;;;1.87;1.03;;;29.00;1.00;;;;;;5020523;28;20265;-75
2022/08/20 11:23:52;;;;;;;1.10;1.10;;;29.40;1.00;;;;;;5034756;28;20497;-76
2022/08/20 11:26:34;;;;;;;1.27;1.17;;;29.80;1.00;;;;;;5019839;28;20191;-75
2022/08/20 11:29:16;;;;;;;0.90;0.90;;;29.90;1.00;;;;;;5021224;28;20414;-76
2022/08/20 11:31:52;;;;;;;1.13;1.03;;;29.80;1.00;;;;;;5026717;28;20505;-77
2022/08/20 11:34:22;;;;;;;0.80;0.80;;;29.80;1.00;;;;;;5019608;28;20423;-77
2022/08/20 11:36:52;;;;;;;2.70;1.20;;;29.70;1.00;;;;;;5013655;28;20444;-77
2022/08/20 11:39:28;;;;;;;1.23;1.13;;;29.90;1.00;;;;;;5014810;28;20423;-78
2022/08/20 11:41:58;;;;;;;1.33;0.90;;;29.90;1.00;;;;;;5025297;28;20755;-79
2022/08/20 11:44:40;;;;;;;1.30;0.80;;;29.80;1.00;;;;;;5022137;28;20439;-78
2022/08/20 11:47:22;;;;;;;8.83;0.80;;;29.60;1.00;;;;;;5027614;28;21129;-83
2022/08/20 11:50:40;;;;;;;1.00;0.90;;;29.60;1.00;;;;;;5025322;28;20422;-85
2022/08/20 11:53:05;;;;;;;0.70;0.70;;;29.80;1.00;;;;;;5015646;28;20423;-79
2022/08/20 11:55:46;;;;;;;1.03;0.70;;;29.90;1.00;;;;;;5030519;28;20443;-79
2022/08/20 11:58:16;;;;;;;0.80;0.80;;;30.00;1.00;;;;;;5032516;28;20575;-81
2022/08/20 12:00:46;;;;;;;4.63;0.80;;;30.10;1.00;;;;;;5015683;28;21384;-81
2022/08/20 12:03:12;;;;;;;3.80;0.60;;;30.30;1.00;;;;;;5025989;28;20424;-74
2022/08/20 12:05:44;;;;;;;1.33;0.53;;;30.60;1.00;;;;;;5020470;28;20420;-74
2022/08/20 12:08:10;;;;;;;0.50;0.40;;;30.50;1.00;;;;;;5029583;28;20507;-74
2022/08/20 12:10:37;;;;;;;0.60;0.50;;;30.70;1.00;;;;;;5026008;28;20419;-74
2022/08/20 12:13:04;;;;;;;0.50;0.40;;;30.90;1.00;;;;;;5026715;28;20419;-74
2022/08/20 12:15:29;;;;;;;3.33;0.50;;;31.00;1.00;;;;;;5024562;28;20466;-74
2022/08/20 12:17:58;;;;;;;0.80;0.43;;;30.90;1.00;;;;;;5024157;28;20451;-77
2022/08/20 12:20:36;;;;;;;0.50;0.43;;;31.10;1.00;;;;;;5032027;28;20234;-79
2022/08/20 12:23:04;;;;;;;0.60;0.50;;;31.50;1.00;;;;;;5024227;28;20416;-78
2022/08/20 12:25:34;;;;;;;0.83;0.50;;;31.60;1.00;;;;;;5029107;28;20822;-76
2022/08/20 12:28:13;;;;;;;0.50;0.40;;;31.70;1.00;;;;;;5015243;28;21030;-77
2022/08/20 12:30:40;;;;;;;0.93;0.40;;;31.80;1.00;;;;;;5019417;28;20546;-77
2022/08/20 12:33:06;;;;;;;0.50;0.50;;;31.60;1.00;;;;;;5032806;28;20439;-78
2022/08/20 12:35:32;;;;;;;0.60;0.40;;;32.00;1.00;;;;;;5025060;28;20458;-76
2022/08/20 12:38:03;;;;;;;2.40;0.50;;;32.10;1.00;;;;;;5023383;28;20226;-76
2022/08/20 12:40:34;;;;;;;0.60;0.50;;;32.40;1.00;;;;;;5033513;28;20514;-76
2022/08/20 12:43:04;;;;;;;1.90;0.50;;;32.20;1.00;;;;;;5033292;28;20434;-77
2022/08/20 12:45:46;;;;;;;0.80;0.40;;;32.30;1.00;;;;;;5029276;28;20428;-76
2022/08/20 12:48:13;;;;;;;0.70;0.53;;;32.40;1.00;;;;;;5020937;28;20458;-77
2022/08/20 12:50:41;;;;;;;3.13;0.50;;;32.20;1.00;;;;;;5032864;28;20461;-76
2022/08/20 12:53:16;;;;;;;1.60;0.70;;;32.00;1.00;;;;;;5024331;28;20887;-77
2022/08/20 12:55:42;;;;;;;1.23;0.50;;;32.10;1.00;;;;;;5026617;28;20426;-76
2022/08/20 12:58:10;;;;;;;1.50;0.63;;;32.30;1.00;;;;;;5031992;28;20431;-77
2022/08/20 13:00:40;;;;;;;0.53;0.50;;;32.10;1.00;;;;;;5029727;28;20181;-77
2022/08/20 13:03:17;;;;;;;1.50;0.50;;;32.20;1.00;;;;;;5015842;28;20444;-76
2022/08/20 13:05:44;;;;;;;0.70;0.60;;;32.00;1.00;;;;;;5028002;28;20800;-77
2022/08/20 13:08:17;;;;;;;0.60;0.50;;;31.90;1.00;;;;;;5017815;28;20857;-76
2022/08/20 13:10:44;;;;;;;1.80;0.50;;;31.90;1.00;;;;;;5016659;28;20439;-77
2022/08/20 13:13:12;;;;;;;3.80;0.60;;;31.70;1.00;;;;;;5019303;28;20419;-76
2022/08/20 13:15:47;;;;;;;0.50;0.50;;;31.20;1.00;;;;;;5022372;28;20920;-77
2022/08/20 13:18:13;;;;;;;0.60;0.50;;;31.00;1.00;;;;;;5037458;28;20517;-83
2022/08/20 13:20:40;;;;;;;0.80;0.60;;;30.90;1.00;;;;;;5034360;28;20518;-83
2022/08/20 13:23:16;;;;;;;2.83;0.57;;;31.10;1.00;;;;;;5024172;28;20177;-83
2022/08/20 13:25:42;;;;;;;0.50;0.50;;;31.30;1.00;;;;;;5017906;28;20412;-83
2022/08/20 13:28:54;;;;;;;2.87;0.60;;;31.40;1.00;;;;;;5017073;28;20447;-83
2022/08/20 13:31:34;;;;;;;0.70;0.60;;;31.80;1.00;;;;;;5017157;28;20235;-83
2022/08/20 13:34:16;;;;;;;1.10;0.80;;;32.30;1.00;;;;;;5017665;28;20834;-88
2022/08/20 13:40:17;;;;;;;0.70;0.70;;;31.90;1.00;;;;;;5017333;28;20399;-86
2022/08/20 13:42:46;;;;;;;1.03;0.80;;;31.80;1.00;;;;;;5016052;28;20443;-85
2022/08/20 13:45:12;;;;;;;0.83;0.83;;;31.60;1.00;;;;;;5016217;28;20400;-86
2022/08/20 13:47:41;;;;;;;0.90;0.70;;;31.60;1.00;;;;;;5036082;28;20462;-78
2022/08/20 13:50:15;;;;;;;0.80;0.80;;;31.60;1.00;;;;;;5036853;28;20429;-77